sensor_id;sensor_type;location;lat;lon;timestamp;P1;durP1;ratioP1;P2;durP2;ratioP2
7563;SDS011;3823;53.586;10.040;2023-08-12T04:02:45;4.07;;;3.65;;
7563;SDS011;3823;53.586;10.040;2023-08-12T04:05:11;3.78;;;3.47;;
7563;SDS011;3823;53.586;10.040;2023-08-12T04:07:36;3.83;;;3.42;;
7563;SDS011;3823;53.586;10.040;2023-08-12T04:10:02;3.92;;;3.63;;
7563;SDS011;3823;53.586;10.040;2023-08-12T04:12:28;4.32;;;3.78;;
7563;SDS011;3823;53.586;10.040;2023-08-12T04:14:53;3.42;;;3.22;;
7563;SDS011;3823;53.586;10.040;2023-08-12T04:17:19;4.13;;;3.83;;
7563;SDS011;3823;53.586;10.040;2023-08-12T04:19:44;3.67;;;3.38;;
7563;SDS011;3823;53.586;10.040;2023-08-12T04:22:10;4.70;;;4.20;;
7563;SDS011;3823;53.586;10.040;2023-08-12T04:24:35;5.03;;;3.70;;
7563;SDS011;3823;53.586;10.040;2023-08-12T04:27:01;4.70;;;3.92;;
7563;SDS011;3823;53.586;10.040;2023-08-12T04:29:26;5.22;;;4.72;;
7563;SDS011;3823;53.586;10.040;2023-08-12T04:31:52;6.10;;;4.35;;
7563;SDS011;3823;53.586;10.040;2023-08-12T04:34:18;5.68;;;3.80;;
7563;SDS011;3823;53.586;10.040;2023-08-12T04:36:43;4.43;;;4.07;;
7563;SDS011;3823;53.586;10.040;2023-08-12T04:39:09;3.50;;;3.30;;
7563;SDS011;3823;53.586;10.040;2023-08-12T04:41:35;3.72;;;3.42;;
7563;SDS011;3823;53.586;10.040;2023-08-12T04:44:03;4.07;;;3.53;;
7563;SDS011;3823;53.586;10.040;2023-08-12T04:46:29;4.45;;;4.13;;
7563;SDS011;3823;53.586;10.040;2023-08-12T04:48:55;3.80;;;3.50;;
7563;SDS011;3823;53.586;10.040;2023-08-12T04:51:20;5.00;;;3.72;;
7563;SDS011;3823;53.586;10.040;2023-08-12T04:53:46;4.65;;;4.15;;
7563;SDS011;3823;53.586;10.040;2023-08-12T04:56:11;3.83;;;3.53;;
7563;SDS011;3823;53.586;10.040;2023-08-12T04:58:37;4.47;;;4.07;;
7563;SDS011;3823;53.586;10.040;2023-08-12T05:01:02;4.10;;;3.70;;
7563;SDS011;3823;53.586;10.040;2023-08-12T05:03:28;3.83;;;3.47;;
7563;SDS011;3823;53.586;10.040;2023-08-12T05:05:54;6.78;;;4.00;;
7563;SDS011;3823;53.586;10.040;2023-08-12T05:08:20;4.82;;;3.85;;
7563;SDS011;3823;53.586;10.040;2023-08-12T05:10:48;4.07;;;3.75;;
7563;SDS011;3823;53.586;10.040;2023-08-12T05:13:14;4.13;;;3.78;;
7563;SDS011;3823;53.586;10.040;2023-08-12T05:15:40;6.63;;;4.95;;
7563;SDS011;3823;53.586;10.040;2023-08-12T05:18:06;4.40;;;4.10;;
7563;SDS011;3823;53.586;10.040;2023-08-12T05:20:31;8.15;;;4.03;;
7563;SDS011;3823;53.586;10.040;2023-08-12T05:22:57;5.30;;;4.05;;
7563;SDS011;3823;53.586;10.040;2023-08-12T05:25:23;5.68;;;3.80;;
7563;SDS011;3823;53.586;10.040;2023-08-12T05:27:49;4.50;;;4.20;;
7563;SDS011;3823;53.586;10.040;2023-08-12T05:30:15;7.47;;;3.70;;
7563;SDS011;3823;53.586;10.040;2023-08-12T05:32:40;11.38;;;4.80;;
7563;SDS011;3823;53.586;10.040;2023-08-12T05:35:06;6.28;;;4.40;;
7563;SDS011;3823;53.586;10.040;2023-08-12T05:37:32;5.57;;;4.30;;
7563;SDS011;3823;53.586;10.040;2023-08-12T05:39:57;4.78;;;4.38;;
7563;SDS011;3823;53.586;10.040;2023-08-12T05:42:23;5.82;;;4.95;;
7563;SDS011;3823;53.586;10.040;2023-08-12T05:44:48;4.97;;;4.47;;
7563;SDS011;3823;53.586;10.040;2023-08-12T05:47:14;4.70;;;4.30;;
7563;SDS011;3823;53.586;10.040;2023-08-12T05:49:39;4.75;;;4.45;;
7563;SDS011;3823;53.586;10.040;2023-08-12T05:52:05;4.75;;;4.45;;
7563;SDS011;3823;53.586;10.040;2023-08-12T05:54:31;7.30;;;4.13;;
7563;SDS011;3823;53.586;10.040;2023-08-12T05:56:56;4.80;;;4.50;;
7563;SDS011;3823;53.586;10.040;2023-08-12T05:59:22;6.00;;;5.50;;
7563;SDS011;3823;53.586;10.040;2023-08-12T06:01:48;4.53;;;4.13;;
7563;SDS011;3823;53.586;10.040;2023-08-12T06:04:13;8.95;;;5.78;;
7563;SDS011;3823;53.586;10.040;2023-08-12T06:06:39;9.40;;;5.22;;
7563;SDS011;3823;53.586;10.040;2023-08-12T06:09:04;5.80;;;5.28;;
7563;SDS011;3823;53.586;10.040;2023-08-12T06:11:30;7.18;;;5.25;;
7563;SDS011;3823;53.586;10.040;2023-08-12T06:13:55;6.30;;;5.82;;
7563;SDS011;3823;53.586;10.040;2023-08-12T06:16:21;7.53;;;5.45;;
7563;SDS011;3823;53.586;10.040;2023-08-12T06:18:46;7.30;;;6.68;;
7563;SDS011;3823;53.586;10.040;2023-08-12T06:21:12;6.60;;;6.00;;
7563;SDS011;3823;53.586;10.040;2023-08-12T06:23:37;10.02;;;6.60;;
7563;SDS011;3823;53.586;10.040;2023-08-12T06:26:03;11.32;;;6.32;;
7563;SDS011;3823;53.586;10.040;2023-08-12T06:28:28;6.00;;;5.40;;
7563;SDS011;3823;53.586;10.040;2023-08-12T06:30:54;6.72;;;6.07;;
7563;SDS011;3823;53.586;10.040;2023-08-12T06:33:20;7.13;;;6.47;;
7563;SDS011;3823;53.586;10.040;2023-08-12T06:35:46;9.25;;;6.22;;
7563;SDS011;3823;53.586;10.040;2023-08-12T06:38:11;6.93;;;6.22;;
7563;SDS011;3823;53.586;10.040;2023-08-12T06:40:38;7.18;;;6.28;;
7563;SDS011;3823;53.586;10.040;2023-08-12T06:43:03;10.55;;;7.28;;
7563;SDS011;3823;53.586;10.040;2023-08-12T06:45:29;7.80;;;7.00;;
7563;SDS011;3823;53.586;10.040;2023-08-12T06:47:55;9.48;;;7.03;;
7563;SDS011;3823;53.586;10.040;2023-08-12T06:50:20;7.82;;;7.05;;
7563;SDS011;3823;53.586;10.040;2023-08-12T06:52:46;9.63;;;7.93;;
7563;SDS011;3823;53.586;10.040;2023-08-12T06:55:11;7.38;;;6.68;;
7563;SDS011;3823;53.586;10.040;2023-08-12T06:57:37;8.45;;;7.63;;
7563;SDS011;3823;53.586;10.040;2023-08-12T07:00:02;8.63;;;7.32;;
7563;SDS011;3823;53.586;10.040;2023-08-12T07:02:30;9.27;;;8.05;;
7563;SDS011;3823;53.586;10.040;2023-08-12T07:04:55;17.17;;;6.85;;
7563;SDS011;3823;53.586;10.040;2023-08-12T07:07:21;10.10;;;7.68;;
7563;SDS011;3823;53.586;10.040;2023-08-12T07:09:46;8.50;;;7.80;;
7563;SDS011;3823;53.586;10.040;2023-08-12T07:12:12;11.20;;;8.23;;
7563;SDS011;3823;53.586;10.040;2023-08-12T07:14:37;10.98;;;9.90;;
7563;SDS011;3823;53.586;10.040;2023-08-12T07:17:03;9.63;;;8.63;;
7563;SDS011;3823;53.586;10.040;2023-08-12T07:19:28;12.05;;;10.10;;
7563;SDS011;3823;53.586;10.040;2023-08-12T07:21:54;10.68;;;9.68;;
7563;SDS011;3823;53.586;10.040;2023-08-12T07:24:19;12.13;;;10.18;;
7563;SDS011;3823;53.586;10.040;2023-08-12T07:26:45;12.43;;;11.13;;
7563;SDS011;3823;53.586;10.040;2023-08-12T07:29:11;10.85;;;9.90;;
7563;SDS011;3823;53.586;10.040;2023-08-12T07:31:36;13.55;;;10.73;;
7563;SDS011;3823;53.586;10.040;2023-08-12T07:34:02;11.98;;;10.63;;
7563;SDS011;3823;53.586;10.040;2023-08-12T07:36:27;12.40;;;11.20;;
7563;SDS011;3823;53.586;10.040;2023-08-12T07:38:53;11.40;;;10.30;;
7563;SDS011;3823;53.586;10.040;2023-08-12T07:41:18;12.00;;;10.80;;
7563;SDS011;3823;53.586;10.040;2023-08-12T07:43:44;12.57;;;11.23;;
7563;SDS011;3823;53.586;10.040;2023-08-12T07:46:09;13.50;;;11.10;;
7563;SDS011;3823;53.586;10.040;2023-08-12T07:48:35;12.48;;;11.18;;
7563;SDS011;3823;53.586;10.040;2023-08-12T07:51:00;10.85;;;9.95;;
7563;SDS011;3823;53.586;10.040;2023-08-12T07:53:26;14.07;;;11.23;;
7563;SDS011;3823;53.586;10.040;2023-08-12T07:55:51;13.13;;;11.95;;
7563;SDS011;3823;53.586;10.040;2023-08-12T07:58:17;14.50;;;12.13;;
7563;SDS011;3823;53.586;10.040;2023-08-12T08:00:43;13.23;;;11.45;;
7563;SDS011;3823;53.586;10.040;2023-08-12T08:03:08;13.85;;;12.07;;
7563;SDS011;3823;53.586;10.040;2023-08-12T08:05:34;11.63;;;10.57;;
7563;SDS011;3823;53.586;10.040;2023-08-12T08:07:59;19.67;;;12.05;;
7563;SDS011;3823;53.586;10.040;2023-08-12T08:10:25;21.40;;;11.95;;
7563;SDS011;3823;53.586;10.040;2023-08-12T08:12:51;11.25;;;10.25;;
7563;SDS011;3823;53.586;10.040;2023-08-12T08:15:16;13.45;;;10.57;;
7563;SDS011;3823;53.586;10.040;2023-08-12T08:17:42;13.70;;;11.07;;
7563;SDS011;3823;53.586;10.040;2023-08-12T08:20:08;12.15;;;11.05;;
7563;SDS011;3823;53.586;10.040;2023-08-12T08:22:35;13.48;;;11.70;;
7563;SDS011;3823;53.586;10.040;2023-08-12T08:25:01;16.83;;;11.32;;
7563;SDS011;3823;53.586;10.040;2023-08-12T08:27:26;11.98;;;10.70;;
7563;SDS011;3823;53.586;10.040;2023-08-12T08:29:52;11.27;;;10.10;;
7563;SDS011;3823;53.586;10.040;2023-08-12T08:32:18;19.48;;;12.13;;
7563;SDS011;3823;53.586;10.040;2023-08-12T08:34:44;11.50;;;10.20;;
7563;SDS011;3823;53.586;10.040;2023-08-12T08:37:09;16.42;;;11.52;;
7563;SDS011;3823;53.586;10.040;2023-08-12T08:39:35;13.50;;;12.10;;
7563;SDS011;3823;53.586;10.040;2023-08-12T08:42:00;13.30;;;11.85;;
7563;SDS011;3823;53.586;10.040;2023-08-12T08:44:29;12.98;;;10.93;;
7563;SDS011;3823;53.586;10.040;2023-08-12T08:46:56;13.27;;;11.75;;
7563;SDS011;3823;53.586;10.040;2023-08-12T08:49:24;18.27;;;11.82;;
7563;SDS011;3823;53.586;10.040;2023-08-12T08:51:50;12.57;;;9.10;;
7563;SDS011;3823;53.586;10.040;2023-08-12T08:54:17;13.07;;;11.38;;
7563;SDS011;3823;53.586;10.040;2023-08-12T08:56:44;16.48;;;11.13;;
7563;SDS011;3823;53.586;10.040;2023-08-12T08:59:10;13.88;;;11.82;;
7563;SDS011;3823;53.586;10.040;2023-08-12T09:01:35;12.35;;;11.15;;
7563;SDS011;3823;53.586;10.040;2023-08-12T09:04:01;12.20;;;10.90;;
7563;SDS011;3823;53.586;10.040;2023-08-12T09:06:28;12.05;;;9.93;;
7563;SDS011;3823;53.586;10.040;2023-08-12T09:08:55;10.80;;;9.30;;
7563;SDS011;3823;53.586;10.040;2023-08-12T09:11:21;11.45;;;9.95;;
7563;SDS011;3823;53.586;10.040;2023-08-12T09:13:48;10.82;;;9.63;;
7563;SDS011;3823;53.586;10.040;2023-08-12T09:16:13;9.90;;;7.72;;
7563;SDS011;3823;53.586;10.040;2023-08-12T09:18:40;9.63;;;7.70;;
7563;SDS011;3823;53.586;10.040;2023-08-12T09:21:08;9.25;;;7.53;;
7563;SDS011;3823;53.586;10.040;2023-08-12T09:23:35;8.13;;;7.28;;
7563;SDS011;3823;53.586;10.040;2023-08-12T09:26:10;8.15;;;7.00;;
7563;SDS011;3823;53.586;10.040;2023-08-12T09:28:38;8.55;;;6.65;;
7563;SDS011;3823;53.586;10.040;2023-08-12T09:31:03;7.63;;;6.88;;
7563;SDS011;3823;53.586;10.040;2023-08-12T09:33:29;10.15;;;7.18;;
7563;SDS011;3823;53.586;10.040;2023-08-12T09:35:54;7.15;;;6.57;;
7563;SDS011;3823;53.586;10.040;2023-08-12T09:38:21;8.30;;;7.32;;
7563;SDS011;3823;53.586;10.040;2023-08-12T09:40:47;12.23;;;8.15;;
7563;SDS011;3823;53.586;10.040;2023-08-12T09:43:13;9.50;;;6.88;;
7563;SDS011;3823;53.586;10.040;2023-08-12T09:45:40;7.40;;;6.70;;
7563;SDS011;3823;53.586;10.040;2023-08-12T09:48:05;8.52;;;6.78;;
7563;SDS011;3823;53.586;10.040;2023-08-12T09:50:33;10.23;;;7.72;;
7563;SDS011;3823;53.586;10.040;2023-08-12T09:53:01;7.90;;;7.05;;
7563;SDS011;3823;53.586;10.040;2023-08-12T09:55:28;8.77;;;7.93;;
7563;SDS011;3823;53.586;10.040;2023-08-12T09:57:56;12.75;;;9.45;;
7563;SDS011;3823;53.586;10.040;2023-08-12T10:00:24;8.90;;;8.05;;
7563;SDS011;3823;53.586;10.040;2023-08-12T10:02:51;14.15;;;10.15;;
7563;SDS011;3823;53.586;10.040;2023-08-12T10:05:24;10.93;;;9.85;;
7563;SDS011;3823;53.586;10.040;2023-08-12T10:07:56;12.05;;;10.93;;
7563;SDS011;3823;53.586;10.040;2023-08-12T10:10:23;10.25;;;9.35;;
7563;SDS011;3823;53.586;10.040;2023-08-12T10:12:49;11.25;;;9.32;;
7563;SDS011;3823;53.586;10.040;2023-08-12T10:15:15;11.88;;;10.57;;
7563;SDS011;3823;53.586;10.040;2023-08-12T10:17:41;14.48;;;9.32;;
7563;SDS011;3823;53.586;10.040;2023-08-12T10:20:07;13.90;;;10.90;;
7563;SDS011;3823;53.586;10.040;2023-08-12T10:22:36;10.52;;;9.43;;
7563;SDS011;3823;53.586;10.040;2023-08-12T10:25:05;12.75;;;10.90;;
7563;SDS011;3823;53.586;10.040;2023-08-12T10:27:33;11.40;;;10.20;;
7563;SDS011;3823;53.586;10.040;2023-08-12T10:29:59;10.55;;;9.52;;
7563;SDS011;3823;53.586;10.040;2023-08-12T10:32:31;9.52;;;7.90;;
7563;SDS011;3823;53.586;10.040;2023-08-12T10:34:58;9.25;;;8.32;;
7563;SDS011;3823;53.586;10.040;2023-08-12T10:37:24;9.70;;;8.85;;
7563;SDS011;3823;53.586;10.040;2023-08-12T10:39:53;7.93;;;7.28;;
7563;SDS011;3823;53.586;10.040;2023-08-12T10:45:04;20.05;;;8.07;;
7563;SDS011;3823;53.586;10.040;2023-08-12T10:47:33;9.25;;;8.25;;
7563;SDS011;3823;53.586;10.040;2023-08-12T10:50:02;9.27;;;8.30;;
7563;SDS011;3823;53.586;10.040;2023-08-12T10:52:28;11.90;;;10.75;;
7563;SDS011;3823;53.586;10.040;2023-08-12T10:54:54;8.38;;;7.60;;
7563;SDS011;3823;53.586;10.040;2023-08-12T10:57:35;9.25;;;8.30;;
7563;SDS011;3823;53.586;10.040;2023-08-12T11:00:03;6.35;;;5.75;;
7563;SDS011;3823;53.586;10.040;2023-08-12T11:02:30;7.88;;;7.00;;
7563;SDS011;3823;53.586;10.040;2023-08-12T11:05:07;6.07;;;5.57;;
7563;SDS011;3823;53.586;10.040;2023-08-12T11:07:37;6.30;;;5.70;;
7563;SDS011;3823;53.586;10.040;2023-08-12T11:10:16;5.60;;;5.20;;
7563;SDS011;3823;53.586;10.040;2023-08-12T11:15:19;5.22;;;4.80;;
7563;SDS011;3823;53.586;10.040;2023-08-12T11:17:58;4.72;;;4.32;;
7563;SDS011;3823;53.586;10.040;2023-08-12T11:20:24;5.57;;;5.10;;
7563;SDS011;3823;53.586;10.040;2023-08-12T11:22:52;6.43;;;5.60;;
7563;SDS011;3823;53.586;10.040;2023-08-12T11:25:18;5.38;;;4.97;;
7563;SDS011;3823;53.586;10.040;2023-08-12T11:27:45;6.35;;;5.68;;
7563;SDS011;3823;53.586;10.040;2023-08-12T11:30:12;6.57;;;5.18;;
7563;SDS011;3823;53.586;10.040;2023-08-12T11:32:41;6.20;;;5.60;;
7563;SDS011;3823;53.586;10.040;2023-08-12T11:35:08;7.07;;;5.53;;
7563;SDS011;3823;53.586;10.040;2023-08-12T11:37:36;6.05;;;5.60;;
7563;SDS011;3823;53.586;10.040;2023-08-12T11:40:02;8.30;;;6.07;;
7563;SDS011;3823;53.586;10.040;2023-08-12T11:42:28;8.85;;;6.63;;
7563;SDS011;3823;53.586;10.040;2023-08-12T11:44:54;6.78;;;6.07;;
7563;SDS011;3823;53.586;10.040;2023-08-12T11:47:19;7.53;;;6.05;;
7563;SDS011;3823;53.586;10.040;2023-08-12T11:49:45;8.18;;;7.40;;
7563;SDS011;3823;53.586;10.040;2023-08-12T11:52:10;8.43;;;6.85;;
7563;SDS011;3823;53.586;10.040;2023-08-12T11:54:36;8.57;;;7.10;;
7563;SDS011;3823;53.586;10.040;2023-08-12T11:57:03;7.55;;;6.45;;
7563;SDS011;3823;53.586;10.040;2023-08-12T11:59:29;8.88;;;7.57;;
7563;SDS011;3823;53.586;10.040;2023-08-12T12:01:55;7.38;;;6.63;;
7563;SDS011;3823;53.586;10.040;2023-08-12T12:04:21;7.25;;;6.35;;
7563;SDS011;3823;53.586;10.040;2023-08-12T12:06:47;9.30;;;6.47;;
7563;SDS011;3823;53.586;10.040;2023-08-12T12:09:13;7.47;;;6.72;;
7563;SDS011;3823;53.586;10.040;2023-08-12T12:11:40;7.88;;;7.18;;
7563;SDS011;3823;53.586;10.040;2023-08-12T12:14:08;10.93;;;8.95;;
7563;SDS011;3823;53.586;10.040;2023-08-12T12:16:38;10.63;;;7.90;;
7563;SDS011;3823;53.586;10.040;2023-08-12T12:19:05;9.20;;;8.32;;
7563;SDS011;3823;53.586;10.040;2023-08-12T12:21:40;10.93;;;9.40;;
7563;SDS011;3823;53.586;10.040;2023-08-12T12:24:08;11.07;;;9.07;;
7563;SDS011;3823;53.586;10.040;2023-08-12T12:26:34;16.83;;;9.88;;
7563;SDS011;3823;53.586;10.040;2023-08-12T12:29:00;11.55;;;9.40;;
7563;SDS011;3823;53.586;10.040;2023-08-12T12:31:27;12.50;;;9.93;;
7563;SDS011;3823;53.586;10.040;2023-08-12T12:33:52;10.88;;;9.80;;
7563;SDS011;3823;53.586;10.040;2023-08-12T12:36:18;12.73;;;10.63;;
7563;SDS011;3823;53.586;10.040;2023-08-12T12:38:43;11.93;;;10.73;;
7563;SDS011;3823;53.586;10.040;2023-08-12T12:41:09;10.57;;;9.48;;
7563;SDS011;3823;53.586;10.040;2023-08-12T12:43:34;14.13;;;11.48;;
7563;SDS011;3823;53.586;10.040;2023-08-12T12:46:00;12.20;;;10.98;;
7563;SDS011;3823;53.586;10.040;2023-08-12T12:48:26;13.15;;;11.40;;
7563;SDS011;3823;53.586;10.040;2023-08-12T12:50:51;12.02;;;10.82;;
7563;SDS011;3823;53.586;10.040;2023-08-12T12:53:17;15.45;;;11.10;;
7563;SDS011;3823;53.586;10.040;2023-08-12T12:55:42;14.05;;;10.20;;
7563;SDS011;3823;53.586;10.040;2023-08-12T12:58:09;13.55;;;9.48;;
7563;SDS011;3823;53.586;10.040;2023-08-12T13:00:35;10.57;;;9.48;;
7563;SDS011;3823;53.586;10.040;2023-08-12T13:03:00;9.65;;;8.85;;
7563;SDS011;3823;53.586;10.040;2023-08-12T13:05:26;10.65;;;9.75;;
7563;SDS011;3823;53.586;10.040;2023-08-12T13:07:51;10.18;;;9.13;;
7563;SDS011;3823;53.586;10.040;2023-08-12T13:10:17;8.52;;;7.15;;
7563;SDS011;3823;53.586;10.040;2023-08-12T13:12:42;7.95;;;7.35;;
7563;SDS011;3823;53.586;10.040;2023-08-12T13:15:08;9.38;;;8.43;;
7563;SDS011;3823;53.586;10.040;2023-08-12T13:17:34;10.00;;;9.10;;
7563;SDS011;3823;53.586;10.040;2023-08-12T13:19:59;8.85;;;7.95;;
7563;SDS011;3823;53.586;10.040;2023-08-12T13:22:25;11.98;;;9.57;;
7563;SDS011;3823;53.586;10.040;2023-08-12T13:24:50;9.73;;;8.80;;
7563;SDS011;3823;53.586;10.040;2023-08-12T13:27:16;9.43;;;8.50;;
7563;SDS011;3823;53.586;10.040;2023-08-12T13:29:42;11.38;;;9.35;;
7563;SDS011;3823;53.586;10.040;2023-08-12T13:32:08;9.38;;;8.45;;
7563;SDS011;3823;53.586;10.040;2023-08-12T13:34:33;9.35;;;8.45;;
7563;SDS011;3823;53.586;10.040;2023-08-12T13:36:59;10.85;;;9.77;;
7563;SDS011;3823;53.586;10.040;2023-08-12T13:39:24;10.48;;;9.48;;
7563;SDS011;3823;53.586;10.040;2023-08-12T13:41:50;11.65;;;10.05;;
7563;SDS011;3823;53.586;10.040;2023-08-12T13:44:15;19.58;;;9.90;;
7563;SDS011;3823;53.586;10.040;2023-08-12T13:46:41;11.27;;;10.27;;
7563;SDS011;3823;53.586;10.040;2023-08-12T13:49:06;9.93;;;8.93;;
7563;SDS011;3823;53.586;10.040;2023-08-12T13:51:32;9.80;;;8.80;;
7563;SDS011;3823;53.586;10.040;2023-08-12T13:53:57;10.13;;;9.13;;
7563;SDS011;3823;53.586;10.040;2023-08-12T13:56:23;13.00;;;10.32;;
7563;SDS011;3823;53.586;10.040;2023-08-12T13:58:49;14.10;;;11.63;;
7563;SDS011;3823;53.586;10.040;2023-08-12T14:01:14;17.63;;;12.32;;
7563;SDS011;3823;53.586;10.040;2023-08-12T14:03:40;10.77;;;9.88;;
7563;SDS011;3823;53.586;10.040;2023-08-12T14:06:05;10.55;;;9.63;;
7563;SDS011;3823;53.586;10.040;2023-08-12T14:08:31;11.75;;;10.57;;
7563;SDS011;3823;53.586;10.040;2023-08-12T14:10:56;11.15;;;10.13;;
7563;SDS011;3823;53.586;10.040;2023-08-12T14:13:22;10.95;;;9.88;;
7563;SDS011;3823;53.586;10.040;2023-08-12T14:15:47;10.27;;;9.25;;
7563;SDS011;3823;53.586;10.040;2023-08-12T14:18:13;7.43;;;6.82;;
7563;SDS011;3823;53.586;10.040;2023-08-12T14:20:38;7.97;;;6.97;;
7563;SDS011;3823;53.586;10.040;2023-08-12T14:23:04;6.90;;;6.40;;
7563;SDS011;3823;53.586;10.040;2023-08-12T14:25:30;6.93;;;6.32;;
7563;SDS011;3823;53.586;10.040;2023-08-12T14:27:55;6.65;;;5.78;;
7563;SDS011;3823;53.586;10.040;2023-08-12T14:30:23;7.75;;;6.85;;
7563;SDS011;3823;53.586;10.040;2023-08-12T14:32:53;8.05;;;7.25;;
7563;SDS011;3823;53.586;10.040;2023-08-12T14:35:18;7.97;;;7.25;;
7563;SDS011;3823;53.586;10.040;2023-08-12T14:37:44;10.52;;;8.18;;
7563;SDS011;3823;53.586;10.040;2023-08-12T14:40:10;8.85;;;7.68;;
7563;SDS011;3823;53.586;10.040;2023-08-12T14:42:36;9.70;;;8.07;;
7563;SDS011;3823;53.586;10.040;2023-08-12T14:45:02;11.63;;;8.18;;
7563;SDS011;3823;53.586;10.040;2023-08-12T14:47:28;8.95;;;8.20;;
7563;SDS011;3823;53.586;10.040;2023-08-12T14:49:53;9.40;;;8.50;;
7563;SDS011;3823;53.586;10.040;2023-08-12T14:52:19;13.88;;;12.18;;
7563;SDS011;3823;53.586;10.040;2023-08-12T14:54:46;11.95;;;10.85;;
7563;SDS011;3823;53.586;10.040;2023-08-12T14:57:12;12.38;;;11.18;;
7563;SDS011;3823;53.586;10.040;2023-08-12T14:59:37;11.95;;;10.68;;
7563;SDS011;3823;53.586;10.040;2023-08-12T15:02:03;12.63;;;11.50;;
7563;SDS011;3823;53.586;10.040;2023-08-12T15:04:29;13.82;;;12.43;;
7563;SDS011;3823;53.586;10.040;2023-08-12T15:06:55;13.82;;;12.43;;
7563;SDS011;3823;53.586;10.040;2023-08-12T15:09:20;15.10;;;13.32;;
7563;SDS011;3823;53.586;10.040;2023-08-12T15:11:46;14.95;;;13.40;;
7563;SDS011;3823;53.586;10.040;2023-08-12T15:14:11;17.17;;;15.18;;
7563;SDS011;3823;53.586;10.040;2023-08-12T15:16:37;16.83;;;15.13;;
7563;SDS011;3823;53.586;10.040;2023-08-12T15:19:03;17.88;;;16.08;;
7563;SDS011;3823;53.586;10.040;2023-08-12T15:21:28;17.90;;;16.08;;
7563;SDS011;3823;53.586;10.040;2023-08-12T15:23:54;18.20;;;16.30;;
7563;SDS011;3823;53.586;10.040;2023-08-12T15:26:20;17.05;;;15.35;;
7563;SDS011;3823;53.586;10.040;2023-08-12T15:28:47;18.35;;;16.55;;
7563;SDS011;3823;53.586;10.040;2023-08-12T15:31:13;17.38;;;15.63;;
7563;SDS011;3823;53.586;10.040;2023-08-12T15:33:40;28.73;;;13.77;;
7563;SDS011;3823;53.586;10.040;2023-08-12T15:36:06;17.05;;;14.38;;
7563;SDS011;3823;53.586;10.040;2023-08-12T15:38:31;17.35;;;14.07;;
7563;SDS011;3823;53.586;10.040;2023-08-12T15:40:58;16.05;;;14.50;;
7563;SDS011;3823;53.586;10.040;2023-08-12T15:43:24;16.98;;;13.65;;
7563;SDS011;3823;53.586;10.040;2023-08-12T15:45:50;16.55;;;14.85;;
7563;SDS011;3823;53.586;10.040;2023-08-12T15:48:16;14.25;;;12.70;;
7563;SDS011;3823;53.586;10.040;2023-08-12T15:50:42;16.27;;;14.70;;
7563;SDS011;3823;53.586;10.040;2023-08-12T15:53:09;16.45;;;14.88;;
7563;SDS011;3823;53.586;10.040;2023-08-12T15:55:34;15.75;;;14.25;;
7563;SDS011;3823;53.586;10.040;2023-08-12T15:58:00;14.15;;;12.90;;
7563;SDS011;3823;53.586;10.040;2023-08-12T16:00:25;14.77;;;13.25;;
7563;SDS011;3823;53.586;10.040;2023-08-12T16:02:51;13.75;;;12.48;;
7563;SDS011;3823;53.586;10.040;2023-08-12T16:05:16;14.95;;;13.32;;
7563;SDS011;3823;53.586;10.040;2023-08-12T16:07:42;14.00;;;12.73;;
7563;SDS011;3823;53.586;10.040;2023-08-12T16:10:07;13.80;;;12.57;;
7563;SDS011;3823;53.586;10.040;2023-08-12T16:12:34;13.07;;;11.60;;
7563;SDS011;3823;53.586;10.040;2023-08-12T16:15:00;14.25;;;11.48;;
7563;SDS011;3823;53.586;10.040;2023-08-12T16:17:26;11.98;;;10.93;;
7563;SDS011;3823;53.586;10.040;2023-08-12T16:19:52;12.90;;;11.63;;
7563;SDS011;3823;53.586;10.040;2023-08-12T16:22:17;13.70;;;12.13;;
7563;SDS011;3823;53.586;10.040;2023-08-12T16:24:43;11.93;;;10.82;;
7563;SDS011;3823;53.586;10.040;2023-08-12T16:27:09;12.02;;;10.95;;
7563;SDS011;3823;53.586;10.040;2023-08-12T16:29:34;11.63;;;10.48;;
7563;SDS011;3823;53.586;10.040;2023-08-12T16:32:00;11.48;;;9.25;;
7563;SDS011;3823;53.586;10.040;2023-08-12T16:34:26;13.10;;;10.60;;
7563;SDS011;3823;53.586;10.040;2023-08-12T16:36:51;8.65;;;7.95;;
7563;SDS011;3823;53.586;10.040;2023-08-12T16:39:17;7.20;;;5.60;;
7563;SDS011;3823;53.586;10.040;2023-08-12T16:41:43;4.93;;;4.20;;
7563;SDS011;3823;53.586;10.040;2023-08-12T16:44:08;5.95;;;3.38;;
7563;SDS011;3823;53.586;10.040;2023-08-12T16:46:34;2.70;;;2.50;;
7563;SDS011;3823;53.586;10.040;2023-08-12T16:48:59;1.73;;;1.63;;
7563;SDS011;3823;53.586;10.040;2023-08-12T16:51:25;1.92;;;1.83;;
7563;SDS011;3823;53.586;10.040;2023-08-12T16:53:51;2.03;;;1.58;;
7563;SDS011;3823;53.586;10.040;2023-08-12T16:56:17;2.25;;;1.90;;
7563;SDS011;3823;53.586;10.040;2023-08-12T16:58:42;1.65;;;1.55;;
7563;SDS011;3823;53.586;10.040;2023-08-12T17:01:08;1.60;;;1.50;;
7563;SDS011;3823;53.586;10.040;2023-08-12T17:03:33;1.88;;;1.77;;
7563;SDS011;3823;53.586;10.040;2023-08-12T17:05:59;1.77;;;1.67;;
7563;SDS011;3823;53.586;10.040;2023-08-12T17:08:24;3.25;;;3.03;;
7563;SDS011;3823;53.586;10.040;2023-08-12T17:10:50;1.38;;;1.23;;
7563;SDS011;3823;53.586;10.040;2023-08-12T17:13:15;1.63;;;1.52;;
7563;SDS011;3823;53.586;10.040;2023-08-12T17:15:41;1.73;;;1.63;;
7563;SDS011;3823;53.586;10.040;2023-08-12T17:18:06;3.17;;;2.88;;
7563;SDS011;3823;53.586;10.040;2023-08-12T17:20:35;2.42;;;2.33;;
7563;SDS011;3823;53.586;10.040;2023-08-12T17:23:00;5.00;;;4.60;;
7563;SDS011;3823;53.586;10.040;2023-08-12T17:25:26;2.17;;;2.08;;
7563;SDS011;3823;53.586;10.040;2023-08-12T17:27:51;2.05;;;1.77;;
7563;SDS011;3823;53.586;10.040;2023-08-12T17:30:20;2.30;;;2.00;;
7563;SDS011;3823;53.586;10.040;2023-08-12T17:32:46;2.45;;;2.25;;
7563;SDS011;3823;53.586;10.040;2023-08-12T17:35:11;3.42;;;2.25;;
7563;SDS011;3823;53.586;10.040;2023-08-12T17:37:38;2.00;;;1.90;;
7563;SDS011;3823;53.586;10.040;2023-08-12T17:40:04;8.05;;;1.55;;
7563;SDS011;3823;53.586;10.040;2023-08-12T17:42:30;2.55;;;2.10;;
7563;SDS011;3823;53.586;10.040;2023-08-12T17:44:56;2.15;;;1.95;;
7563;SDS011;3823;53.586;10.040;2023-08-12T17:47:22;2.10;;;1.85;;
7563;SDS011;3823;53.586;10.040;2023-08-12T17:49:47;2.60;;;2.40;;
7563;SDS011;3823;53.586;10.040;2023-08-12T17:52:13;1.55;;;1.45;;
7563;SDS011;3823;53.586;10.040;2023-08-12T17:54:38;2.50;;;2.30;;
7563;SDS011;3823;53.586;10.040;2023-08-12T17:57:04;2.50;;;2.30;;
7563;SDS011;3823;53.586;10.040;2023-08-12T17:59:30;1.90;;;1.80;;
7563;SDS011;3823;53.586;10.040;2023-08-12T18:01:55;2.10;;;1.90;;
7563;SDS011;3823;53.586;10.040;2023-08-12T18:04:21;2.10;;;1.92;;
7563;SDS011;3823;53.586;10.040;2023-08-12T18:06:46;2.35;;;2.15;;
7563;SDS011;3823;53.586;10.040;2023-08-12T18:09:12;3.45;;;2.30;;
7563;SDS011;3823;53.586;10.040;2023-08-12T18:11:37;2.35;;;2.10;;
7563;SDS011;3823;53.586;10.040;2023-08-12T18:14:03;2.63;;;2.42;;
7563;SDS011;3823;53.586;10.040;2023-08-12T18:16:29;3.22;;;2.45;;
7563;SDS011;3823;53.586;10.040;2023-08-12T18:18:54;2.55;;;2.35;;
7563;SDS011;3823;53.586;10.040;2023-08-12T18:21:20;2.33;;;2.15;;
7563;SDS011;3823;53.586;10.040;2023-08-12T18:23:45;2.97;;;2.15;;
7563;SDS011;3823;53.586;10.040;2023-08-12T18:26:11;2.30;;;2.10;;
7563;SDS011;3823;53.586;10.040;2023-08-12T18:28:36;2.92;;;2.70;;
7563;SDS011;3823;53.586;10.040;2023-08-12T18:31:02;2.63;;;2.10;;
7563;SDS011;3823;53.586;10.040;2023-08-12T18:33:28;2.58;;;2.38;;
7563;SDS011;3823;53.586;10.040;2023-08-12T18:35:54;3.83;;;2.33;;
7563;SDS011;3823;53.586;10.040;2023-08-12T18:38:19;2.00;;;1.90;;
7563;SDS011;3823;53.586;10.040;2023-08-12T18:40:45;2.55;;;2.35;;
7563;SDS011;3823;53.586;10.040;2023-08-12T18:43:10;3.72;;;2.10;;
7563;SDS011;3823;53.586;10.040;2023-08-12T18:45:36;2.60;;;2.38;;
7563;SDS011;3823;53.586;10.040;2023-08-12T18:48:03;7.47;;;2.40;;
7563;SDS011;3823;53.586;10.040;2023-08-12T18:50:29;3.00;;;2.38;;